Ana Sayfa
METAR-TAF:

METAR-TAF

Havaalanları :

Burnet Municipal Airport (Kate Craddock Field)

Burnet, Teksas, Amerika Birleşik Devletleri

Enlem: 30-44-26N, Boylam: 098-14-07W, yükseklik: 392 m

Güncel hava durumu gözlemi

Rapor saat 20:53 UTC de 1 saat ve 8 dakika önce yapıldı.
Rüzgar batı/kuzeybatıdan 10 kt
Sıcaklık 19°C
Nem 32%
Basınç 1010 hPa
Görüş mesafesi: 16.1 km
Açık gökyüzü

METAR: KBMQ 242053Z AUTO 29010KT 10SM CLR 19/02 A2983 RMK AO2 SLP091 T01890022 56029 $

Saat: 16:01 (22:01 UTC)


TAF: eksik

4.000'den fazla havaalanı için hava durumu gözlemleri ve tahminleri (METAR ve TAF raporları).

Kullanılabilir istasyonlar harita üzerinde sarı ve kırmızı noktalarla gösterilir.

İstasyonun adını görmek için fareyi noktanın üzerinde gezdirin.

Sonrasında hava gözlem ve tahminlerini görmek için tıklayın.

Haritayı değiştirmek için: yaklaştırmak için siyah artı işaretli yeşil düğmeye ve uzaklaştırmak için de eksi işaretli düğmeye hızla tıklayın; bitişik haritalar için yeşil okları kullanın.


METAR-TAF: